sensor_id;sensor_type;location;lat;lon;timestamp;pressure;altitude;pressure_sealevel;temperature;humidity
76352;BME280;65179;47.786;19.138;2023-07-28T00:00:59;99927.03;;;20.08;55.15
76352;BME280;65179;47.786;19.138;2023-07-28T00:03:25;99922.31;;;20.13;55.00
76352;BME280;65179;47.786;19.138;2023-07-28T00:05:50;99914.78;;;20.19;54.94
76352;BME280;65179;47.786;19.138;2023-07-28T00:08:15;99927.53;;;20.15;55.30
76352;BME280;65179;47.786;19.138;2023-07-28T00:10:41;99922.84;;;20.15;55.25
76352;BME280;65179;47.786;19.138;2023-07-28T00:13:07;99923.19;;;20.09;55.53
76352;BME280;65179;47.786;19.138;2023-07-28T00:15:33;99899.94;;;20.15;55.68
76352;BME280;65179;47.786;19.138;2023-07-28T00:17:58;99915.41;;;20.16;55.86
76352;BME280;65179;47.786;19.138;2023-07-28T00:20:25;99911.63;;;20.07;55.89
76352;BME280;65179;47.786;19.138;2023-07-28T00:22:51;99901.19;;;20.04;56.39
76352;BME280;65179;47.786;19.138;2023-07-28T00:25:17;99897.84;;;20.07;55.77
76352;BME280;65179;47.786;19.138;2023-07-28T00:27:42;99895.75;;;19.99;55.72
76352;BME280;65179;47.786;19.138;2023-07-28T00:30:09;99894.78;;;20.08;55.45
76352;BME280;65179;47.786;19.138;2023-07-28T00:32:35;99904.88;;;20.18;55.15
76352;BME280;65179;47.786;19.138;2023-07-28T00:35:01;99907.91;;;20.16;55.38
76352;BME280;65179;47.786;19.138;2023-07-28T00:37:26;99902.75;;;20.10;55.49
76352;BME280;65179;47.786;19.138;2023-07-28T00:39:52;99904.94;;;20.13;55.38
76352;BME280;65179;47.786;19.138;2023-07-28T00:42:17;99901.97;;;20.09;55.53
76352;BME280;65179;47.786;19.138;2023-07-28T00:44:43;99900.63;;;20.07;55.36
76352;BME280;65179;47.786;19.138;2023-07-28T00:47:08;99907.19;;;20.11;55.20
76352;BME280;65179;47.786;19.138;2023-07-28T00:49:33;99892.72;;;20.19;54.86
76352;BME280;65179;47.786;19.138;2023-07-28T00:51:59;99889.59;;;20.07;55.26
76352;BME280;65179;47.786;19.138;2023-07-28T00:54:24;99897.84;;;20.07;55.33
76352;BME280;65179;47.786;19.138;2023-07-28T00:56:50;99893.16;;;20.07;55.27
76352;BME280;65179;47.786;19.138;2023-07-28T00:59:16;99903.38;;;20.07;55.30
76352;BME280;65179;47.786;19.138;2023-07-28T01:01:42;99897.84;;;20.07;55.48
76352;BME280;65179;47.786;19.138;2023-07-28T01:04:07;99901.72;;;20.06;55.59
76352;BME280;65179;47.786;19.138;2023-07-28T01:09:16;99892.34;;;20.07;55.76
76352;BME280;65179;47.786;19.138;2023-07-28T01:11:56;99879.66;;;20.06;55.76
76352;BME280;65179;47.786;19.138;2023-07-28T01:14:22;99895.16;;;20.02;55.71
76352;BME280;65179;47.786;19.138;2023-07-28T01:16:47;99875.03;;;20.01;55.92
76352;BME280;65179;47.786;19.138;2023-07-28T01:19:16;99885.59;;;19.94;55.87
76352;BME280;65179;47.786;19.138;2023-07-28T01:21:42;99879.91;;;19.86;56.30
76352;BME280;65179;47.786;19.138;2023-07-28T01:24:29;99890.94;;;19.86;56.40
76352;BME280;65179;47.786;19.138;2023-07-28T01:27:00;99893.19;;;19.84;56.32
76352;BME280;65179;47.786;19.138;2023-07-28T01:29:26;99883.28;;;19.78;56.97
76352;BME280;65179;47.786;19.138;2023-07-28T01:31:52;99892.09;;;19.80;56.41
76352;BME280;65179;47.786;19.138;2023-07-28T01:34:17;99877.00;;;19.77;56.59
76352;BME280;65179;47.786;19.138;2023-07-28T01:36:43;99872.88;;;19.75;56.49
76352;BME280;65179;47.786;19.138;2023-07-28T01:39:08;99874.81;;;19.74;56.53
76352;BME280;65179;47.786;19.138;2023-07-28T01:41:33;99865.19;;;19.72;56.60
76352;BME280;65179;47.786;19.138;2023-07-28T01:43:59;99877.34;;;19.71;56.55
76352;BME280;65179;47.786;19.138;2023-07-28T01:46:24;99877.34;;;19.71;56.58
76352;BME280;65179;47.786;19.138;2023-07-28T01:48:50;99886.69;;;19.70;56.65
76352;BME280;65179;47.786;19.138;2023-07-28T01:51:15;99885.66;;;19.65;57.04
76352;BME280;65179;47.786;19.138;2023-07-28T01:53:41;99884.63;;;19.56;57.56
76352;BME280;65179;47.786;19.138;2023-07-28T01:56:06;99887.97;;;19.53;57.52
76352;BME280;65179;47.786;19.138;2023-07-28T01:58:31;99876.94;;;19.53;57.74
76352;BME280;65179;47.786;19.138;2023-07-28T02:00:57;99881.66;;;19.53;57.41
76352;BME280;65179;47.786;19.138;2023-07-28T02:03:22;99885.63;;;19.42;57.94
76352;BME280;65179;47.786;19.138;2023-07-28T02:05:48;99878.13;;;19.47;57.50
76352;BME280;65179;47.786;19.138;2023-07-28T02:08:13;99879.50;;;19.45;57.78
76352;BME280;65179;47.786;19.138;2023-07-28T02:10:38;99876.19;;;19.48;57.60
76352;BME280;65179;47.786;19.138;2023-07-28T02:13:04;99878.75;;;19.39;58.43
76352;BME280;65179;47.786;19.138;2023-07-28T02:15:29;99872.06;;;19.45;57.73
76352;BME280;65179;47.786;19.138;2023-07-28T02:17:55;99868.91;;;19.28;58.28
76352;BME280;65179;47.786;19.138;2023-07-28T02:20:21;99869.97;;;19.32;57.99
76352;BME280;65179;47.786;19.138;2023-07-28T02:22:46;99870.78;;;19.33;57.90
76352;BME280;65179;47.786;19.138;2023-07-28T02:25:12;99872.72;;;19.32;58.03
76352;BME280;65179;47.786;19.138;2023-07-28T02:27:38;99876.00;;;19.39;57.86
76352;BME280;65179;47.786;19.138;2023-07-28T02:30:05;99882.56;;;19.43;57.76
76352;BME280;65179;47.786;19.138;2023-07-28T02:32:31;99873.19;;;19.44;57.77
76352;BME280;65179;47.786;19.138;2023-07-28T02:34:57;99881.41;;;19.49;57.80
76352;BME280;65179;47.786;19.138;2023-07-28T02:37:22;99869.28;;;19.50;57.78
76352;BME280;65179;47.786;19.138;2023-07-28T02:39:48;99864.87;;;19.49;57.79
76352;BME280;65179;47.786;19.138;2023-07-28T02:42:13;99868.56;;;19.40;58.05
76352;BME280;65179;47.786;19.138;2023-07-28T02:44:39;99856.59;;;19.21;58.61
76352;BME280;65179;47.786;19.138;2023-07-28T02:47:05;99856.87;;;19.19;58.80
76352;BME280;65179;47.786;19.138;2023-07-28T02:49:31;99850.81;;;19.22;58.69
76352;BME280;65179;47.786;19.138;2023-07-28T02:51:56;99854.13;;;19.19;58.75
76352;BME280;65179;47.786;19.138;2023-07-28T02:54:22;99853.56;;;19.22;58.77
76352;BME280;65179;47.786;19.138;2023-07-28T02:56:49;99851.91;;;19.21;58.76
76352;BME280;65179;47.786;19.138;2023-07-28T02:59:14;99854.09;;;19.24;58.91
76352;BME280;65179;47.786;19.138;2023-07-28T03:01:40;99861.50;;;19.24;58.79
76352;BME280;65179;47.786;19.138;2023-07-28T03:04:05;99862.91;;;19.21;58.72
76352;BME280;65179;47.786;19.138;2023-07-28T03:06:31;99858.22;;;19.22;58.84
76352;BME280;65179;47.786;19.138;2023-07-28T03:08:58;99862.91;;;19.21;59.46
76352;BME280;65179;47.786;19.138;2023-07-28T03:11:24;99858.06;;;19.08;59.64
76352;BME280;65179;47.786;19.138;2023-07-28T03:13:49;99861.84;;;19.17;59.36
76352;BME280;65179;47.786;19.138;2023-07-28T03:16:14;99863.56;;;19.08;59.59
76352;BME280;65179;47.786;19.138;2023-07-28T03:18:40;99847.16;;;18.98;59.74
76352;BME280;65179;47.786;19.138;2023-07-28T03:21:05;99863.09;;;19.01;59.77
76352;BME280;65179;47.786;19.138;2023-07-28T03:23:30;99855.41;;;18.98;59.94
76352;BME280;65179;47.786;19.138;2023-07-28T03:25:56;99844.44;;;18.93;60.48
76352;BME280;65179;47.786;19.138;2023-07-28T03:28:21;99844.44;;;18.93;60.32
76352;BME280;65179;47.786;19.138;2023-07-28T03:30:47;99860.41;;;18.91;60.43
76352;BME280;65179;47.786;19.138;2023-07-28T03:33:12;99850.47;;;18.95;60.34
76352;BME280;65179;47.786;19.138;2023-07-28T03:35:37;99858.41;;;19.02;60.03
76352;BME280;65179;47.786;19.138;2023-07-28T03:38:03;99855.31;;;19.08;59.96
76352;BME280;65179;47.786;19.138;2023-07-28T03:40:28;99851.25;;;19.06;60.63
76352;BME280;65179;47.786;19.138;2023-07-28T03:42:54;99845.81;;;18.96;60.82
76352;BME280;65179;47.786;19.138;2023-07-28T03:45:19;99860.38;;;18.96;60.90
76352;BME280;65179;47.786;19.138;2023-07-28T03:47:45;99869.22;;;18.93;60.74
76352;BME280;65179;47.786;19.138;2023-07-28T03:50:10;99864.75;;;19.02;60.42
76352;BME280;65179;47.786;19.138;2023-07-28T03:52:36;99869.03;;;19.13;60.26
76352;BME280;65179;47.786;19.138;2023-07-28T03:55:01;99868.94;;;19.23;59.89
76352;BME280;65179;47.786;19.138;2023-07-28T03:57:27;99868.41;;;19.21;59.78
76352;BME280;65179;47.786;19.138;2023-07-28T03:59:52;99879.97;;;19.23;59.74
76352;BME280;65179;47.786;19.138;2023-07-28T04:02:18;99882.62;;;19.33;59.61
76352;BME280;65179;47.786;19.138;2023-07-28T04:04:43;99873.78;;;19.41;59.71
76352;BME280;65179;47.786;19.138;2023-07-28T04:07:08;99874.94;;;19.35;59.87
76352;BME280;65179;47.786;19.138;2023-07-28T04:09:34;99873.31;;;19.29;59.70
76352;BME280;65179;47.786;19.138;2023-07-28T04:11:59;99875.47;;;19.32;59.97
76352;BME280;65179;47.786;19.138;2023-07-28T04:14:25;99880.97;;;19.37;59.60
76352;BME280;65179;47.786;19.138;2023-07-28T04:16:50;99863.09;;;19.35;59.80
76352;BME280;65179;47.786;19.138;2023-07-28T04:19:15;99867.09;;;19.47;59.54
76352;BME280;65179;47.786;19.138;2023-07-28T04:21:41;99869.31;;;19.45;59.69
76352;BME280;65179;47.786;19.138;2023-07-28T04:24:07;99864.34;;;19.47;59.65
76352;BME280;65179;47.786;19.138;2023-07-28T04:26:33;99866.06;;;19.38;60.30
76352;BME280;65179;47.786;19.138;2023-07-28T04:28:58;99872.16;;;19.40;60.08
76352;BME280;65179;47.786;19.138;2023-07-28T04:31:24;99873.56;;;19.33;60.21
76352;BME280;65179;47.786;19.138;2023-07-28T04:33:49;99871.06;;;19.36;60.14
76352;BME280;65179;47.786;19.138;2023-07-28T04:36:15;99864.44;;;19.37;60.15
76352;BME280;65179;47.786;19.138;2023-07-28T04:38:40;99859.50;;;19.34;60.78
76352;BME280;65179;47.786;19.138;2023-07-28T04:41:06;99868.34;;;19.31;60.35
76352;BME280;65179;47.786;19.138;2023-07-28T04:43:31;99873.84;;;19.31;60.52
76352;BME280;65179;47.786;19.138;2023-07-28T04:45:56;99871.63;;;19.33;60.98
76352;BME280;65179;47.786;19.138;2023-07-28T04:48:23;99855.19;;;19.23;61.04
76352;BME280;65179;47.786;19.138;2023-07-28T04:50:48;99856.28;;;19.27;61.00
76352;BME280;65179;47.786;19.138;2023-07-28T04:53:14;99845.25;;;19.27;61.13
76352;BME280;65179;47.786;19.138;2023-07-28T04:55:39;99843.81;;;19.30;60.90
76352;BME280;65179;47.786;19.138;2023-07-28T04:58:05;99839.66;;;19.37;61.14
76352;BME280;65179;47.786;19.138;2023-07-28T05:00:30;99857.25;;;19.41;60.87
76352;BME280;65179;47.786;19.138;2023-07-28T05:02:55;99857.97;;;19.52;60.92
76352;BME280;65179;47.786;19.138;2023-07-28T05:05:21;99849.41;;;19.53;60.82
76352;BME280;65179;47.786;19.138;2023-07-28T05:07:46;99852.75;;;19.50;60.55
76352;BME280;65179;47.786;19.138;2023-07-28T05:10:12;99844.78;;;19.49;60.70
76352;BME280;65179;47.786;19.138;2023-07-28T05:12:37;99838.00;;;19.36;60.53
76352;BME280;65179;47.786;19.138;2023-07-28T05:15:03;99840.44;;;19.43;60.28
76352;BME280;65179;47.786;19.138;2023-07-28T05:17:29;99837.22;;;19.36;60.58
76352;BME280;65179;47.786;19.138;2023-07-28T05:19:55;99845.19;;;19.32;60.54
76352;BME280;65179;47.786;19.138;2023-07-28T05:22:20;99845.25;;;19.27;60.61
76352;BME280;65179;47.786;19.138;2023-07-28T05:24:45;99839.91;;;19.41;60.35
76352;BME280;65179;47.786;19.138;2023-07-28T05:27:11;99839.81;;;19.51;60.37
76352;BME280;65179;47.786;19.138;2023-07-28T05:29:37;99853.75;;;19.59;60.12
76352;BME280;65179;47.786;19.138;2023-07-28T05:32:02;99843.19;;;19.66;59.83
76352;BME280;65179;47.786;19.138;2023-07-28T05:34:29;99850.13;;;19.64;60.25
76352;BME280;65179;47.786;19.138;2023-07-28T05:36:54;99856.56;;;19.54;60.12
76352;BME280;65179;47.786;19.138;2023-07-28T05:39:20;99854.81;;;19.63;59.70
76352;BME280;65179;47.786;19.138;2023-07-28T05:41:45;99861.59;;;19.71;59.40
76352;BME280;65179;47.786;19.138;2023-07-28T05:44:11;99866.31;;;19.71;59.11
76352;BME280;65179;47.786;19.138;2023-07-28T05:46:36;99862.56;;;19.61;59.64
76352;BME280;65179;47.786;19.138;2023-07-28T05:49:02;99861.91;;;19.70;59.82
76352;BME280;65179;47.786;19.138;2023-07-28T05:51:27;99860.91;;;19.84;59.42
76352;BME280;65179;47.786;19.138;2023-07-28T05:53:54;99870.78;;;19.90;59.25
76352;BME280;65179;47.786;19.138;2023-07-28T05:56:20;99875.47;;;19.90;59.36
76352;BME280;65179;47.786;19.138;2023-07-28T05:58:46;99873.00;;;20.12;59.03
76352;BME280;65179;47.786;19.138;2023-07-28T06:01:12;99876.75;;;20.21;59.66
76352;BME280;65179;47.786;19.138;2023-07-28T06:03:38;99879.56;;;20.16;58.24
76352;BME280;65179;47.786;19.138;2023-07-28T06:06:03;99880.53;;;20.25;58.78
76352;BME280;65179;47.786;19.138;2023-07-28T06:08:29;99875.66;;;20.17;58.91
76352;BME280;65179;47.786;19.138;2023-07-28T06:10:54;99881.53;;;20.10;59.26
76352;BME280;65179;47.786;19.138;2023-07-28T06:13:20;99876.28;;;20.14;59.08
76352;BME280;65179;47.786;19.138;2023-07-28T06:15:45;99875.09;;;20.20;59.23
76352;BME280;65179;47.786;19.138;2023-07-28T06:18:10;99878.56;;;20.07;59.18
76352;BME280;65179;47.786;19.138;2023-07-28T06:20:36;99884.03;;;20.12;59.68
76352;BME280;65179;47.786;19.138;2023-07-28T06:23:01;99883.28;;;20.01;59.06
76352;BME280;65179;47.786;19.138;2023-07-28T06:25:27;99886.66;;;19.98;59.73
76352;BME280;65179;47.786;19.138;2023-07-28T06:27:52;99889.38;;;20.27;59.10
76352;BME280;65179;47.786;19.138;2023-07-28T06:30:18;99902.06;;;20.23;59.60
76352;BME280;65179;47.786;19.138;2023-07-28T06:32:43;99896.88;;;20.40;58.89
76352;BME280;65179;47.786;19.138;2023-07-28T06:35:09;99894.59;;;20.47;58.69
76352;BME280;65179;47.786;19.138;2023-07-28T06:37:36;99884.91;;;20.31;59.07
76352;BME280;65179;47.786;19.138;2023-07-28T06:40:04;99882.34;;;20.53;58.51
76352;BME280;65179;47.786;19.138;2023-07-28T06:42:30;99880.16;;;20.55;58.95
76352;BME280;65179;47.786;19.138;2023-07-28T06:44:56;99886.41;;;20.42;58.66
76352;BME280;65179;47.786;19.138;2023-07-28T06:47:22;99882.47;;;20.48;58.08
76352;BME280;65179;47.786;19.138;2023-07-28T06:49:47;99879.91;;;20.52;57.04
76352;BME280;65179;47.786;19.138;2023-07-28T06:52:13;99872.84;;;20.83;57.24
76352;BME280;65179;47.786;19.138;2023-07-28T06:54:38;99882.06;;;20.92;56.41
76352;BME280;65179;47.786;19.138;2023-07-28T06:57:04;99872.56;;;21.17;55.96
76352;BME280;65179;47.786;19.138;2023-07-28T06:59:31;99866.03;;;21.12;56.33
76352;BME280;65179;47.786;19.138;2023-07-28T07:01:57;99861.25;;;21.32;56.42
76352;BME280;65179;47.786;19.138;2023-07-28T07:04:22;99855.84;;;21.27;56.58
76352;BME280;65179;47.786;19.138;2023-07-28T07:06:48;99849.09;;;21.33;56.54
76352;BME280;65179;47.786;19.138;2023-07-28T07:09:13;99857.84;;;21.21;56.81
76352;BME280;65179;47.786;19.138;2023-07-28T07:11:41;99847.44;;;20.99;56.32
76352;BME280;65179;47.786;19.138;2023-07-28T07:14:07;99847.38;;;21.04;56.45
76352;BME280;65179;47.786;19.138;2023-07-28T07:16:33;99841.37;;;20.97;56.33
76352;BME280;65179;47.786;19.138;2023-07-28T07:18:59;99844.53;;;21.09;55.82
76352;BME280;65179;47.786;19.138;2023-07-28T07:21:24;99862.22;;;21.08;56.02
76352;BME280;65179;47.786;19.138;2023-07-28T07:23:50;99861.09;;;21.09;55.74
76352;BME280;65179;47.786;19.138;2023-07-28T07:26:15;99861.31;;;21.13;55.68
76352;BME280;65179;47.786;19.138;2023-07-28T07:28:40;99873.78;;;21.10;56.23
76352;BME280;65179;47.786;19.138;2023-07-28T07:31:15;99874.62;;;21.25;55.73
76352;BME280;65179;47.786;19.138;2023-07-28T07:33:41;99870.00;;;21.66;55.43
76352;BME280;65179;47.786;19.138;2023-07-28T07:36:14;99873.16;;;21.92;55.20
76352;BME280;65179;47.786;19.138;2023-07-28T07:38:40;99868.84;;;22.13;54.35
76352;BME280;65179;47.786;19.138;2023-07-28T07:41:07;99870.22;;;22.37;54.08
76352;BME280;65179;47.786;19.138;2023-07-28T07:43:33;99863.56;;;22.38;55.07
76352;BME280;65179;47.786;19.138;2023-07-28T07:45:59;99858.53;;;22.40;53.77
76352;BME280;65179;47.786;19.138;2023-07-28T07:48:24;99852.91;;;22.81;52.69
76352;BME280;65179;47.786;19.138;2023-07-28T07:50:50;99856.97;;;22.97;51.64
76352;BME280;65179;47.786;19.138;2023-07-28T07:53:16;99845.19;;;23.36;50.35
76352;BME280;65179;47.786;19.138;2023-07-28T07:55:41;99836.06;;;23.66;50.38
76352;BME280;65179;47.786;19.138;2023-07-28T07:58:07;99832.31;;;23.71;49.73
76352;BME280;65179;47.786;19.138;2023-07-28T08:00:32;99826.91;;;23.35;50.61
76352;BME280;65179;47.786;19.138;2023-07-28T08:02:58;99821.62;;;23.25;49.20
76352;BME280;65179;47.786;19.138;2023-07-28T08:05:24;99835.59;;;22.98;50.68
76352;BME280;65179;47.786;19.138;2023-07-28T08:07:49;99841.16;;;22.98;50.43
76352;BME280;65179;47.786;19.138;2023-07-28T08:10:16;99836.31;;;23.03;50.44
76352;BME280;65179;47.786;19.138;2023-07-28T08:12:41;99838.75;;;22.83;50.18
76352;BME280;65179;47.786;19.138;2023-07-28T08:15:10;99838.91;;;22.78;50.36
76352;BME280;65179;47.786;19.138;2023-07-28T08:17:35;99848.28;;;23.34;48.59
76352;BME280;65179;47.786;19.138;2023-07-28T08:20:01;99845.78;;;23.55;48.26
76352;BME280;65179;47.786;19.138;2023-07-28T08:22:26;99838.06;;;23.83;48.18
76352;BME280;65179;47.786;19.138;2023-07-28T08:24:52;99840.41;;;23.59;48.68
76352;BME280;65179;47.786;19.138;2023-07-28T08:27:17;99841.16;;;23.81;48.23
76352;BME280;65179;47.786;19.138;2023-07-28T08:29:43;99843.41;;;23.71;47.69
76352;BME280;65179;47.786;19.138;2023-07-28T08:32:09;99841.47;;;23.41;48.08
76352;BME280;65179;47.786;19.138;2023-07-28T08:34:34;99841.91;;;23.34;48.22
76352;BME280;65179;47.786;19.138;2023-07-28T08:36:59;99840.31;;;23.72;47.96
76352;BME280;65179;47.786;19.138;2023-07-28T08:39:25;99845.34;;;23.70;48.06
76352;BME280;65179;47.786;19.138;2023-07-28T08:42:01;99839.38;;;23.85;48.28
76352;BME280;65179;47.786;19.138;2023-07-28T08:44:31;99853.69;;;23.70;47.25
76352;BME280;65179;47.786;19.138;2023-07-28T08:47:00;99849.94;;;23.75;48.63
76352;BME280;65179;47.786;19.138;2023-07-28T08:49:25;99841.59;;;23.66;48.67
76352;BME280;65179;47.786;19.138;2023-07-28T08:51:52;99843.47;;;23.88;47.79
76352;BME280;65179;47.786;19.138;2023-07-28T08:54:17;99844.12;;;23.93;46.42
76352;BME280;65179;47.786;19.138;2023-07-28T08:56:43;99842.50;;;23.92;47.52
76352;BME280;65179;47.786;19.138;2023-07-28T08:59:09;99843.13;;;24.29;46.95
76352;BME280;65179;47.786;19.138;2023-07-28T09:01:41;99838.41;;;24.38;46.51
76352;BME280;65179;47.786;19.138;2023-07-28T09:04:11;99838.56;;;24.50;46.59
76352;BME280;65179;47.786;19.138;2023-07-28T09:06:38;99835.97;;;24.45;45.05
76352;BME280;65179;47.786;19.138;2023-07-28T09:09:07;99842.47;;;24.15;46.92
76352;BME280;65179;47.786;19.138;2023-07-28T09:11:32;99840.37;;;24.46;46.31
76352;BME280;65179;47.786;19.138;2023-07-28T09:14:00;99842.03;;;24.72;45.88
76352;BME280;65179;47.786;19.138;2023-07-28T09:16:26;99824.72;;;24.84;44.68
76352;BME280;65179;47.786;19.138;2023-07-28T09:19:14;99825.13;;;25.37;44.03
76352;BME280;65179;47.786;19.138;2023-07-28T09:21:42;99822.19;;;25.89;43.28
76352;BME280;65179;47.786;19.138;2023-07-28T09:24:12;99820.03;;;25.56;44.05
76352;BME280;65179;47.786;19.138;2023-07-28T09:26:45;99821.66;;;25.66;44.47
76352;BME280;65179;47.786;19.138;2023-07-28T09:29:16;99809.94;;;25.43;43.72
76352;BME280;65179;47.786;19.138;2023-07-28T09:31:49;99809.09;;;25.51;44.11
76352;BME280;65179;47.786;19.138;2023-07-28T09:34:27;99815.00;;;26.17;42.96
76352;BME280;65179;47.786;19.138;2023-07-28T09:36:54;99797.91;;;26.27;42.46
76352;BME280;65179;47.786;19.138;2023-07-28T09:39:20;99804.38;;;26.60;41.54
76352;BME280;65179;47.786;19.138;2023-07-28T09:41:46;99799.25;;;26.21;42.12
76352;BME280;65179;47.786;19.138;2023-07-28T09:44:12;99794.81;;;26.28;42.05
76352;BME280;65179;47.786;19.138;2023-07-28T09:49:14;99793.75;;;26.12;42.70
76352;BME280;65179;47.786;19.138;2023-07-28T09:51:42;99786.91;;;26.51;41.49
76352;BME280;65179;47.786;19.138;2023-07-28T09:54:12;99785.13;;;26.88;41.39
76352;BME280;65179;47.786;19.138;2023-07-28T09:56:39;99788.91;;;26.01;41.77
76352;BME280;65179;47.786;19.138;2023-07-28T09:59:11;99781.03;;;26.03;42.32
76352;BME280;65179;47.786;19.138;2023-07-28T10:01:41;99776.12;;;26.29;41.12
76352;BME280;65179;47.786;19.138;2023-07-28T10:04:07;99778.78;;;26.87;40.66
76352;BME280;65179;47.786;19.138;2023-07-28T10:06:33;99769.41;;;26.51;41.18
76352;BME280;65179;47.786;19.138;2023-07-28T10:08:59;99766.66;;;26.83;41.72
76352;BME280;65179;47.786;19.138;2023-07-28T10:11:25;99771.47;;;26.95;41.61
76352;BME280;65179;47.786;19.138;2023-07-28T10:13:51;99772.56;;;27.02;41.13
76352;BME280;65179;47.786;19.138;2023-07-28T10:16:19;99777.03;;;27.28;40.82
76352;BME280;65179;47.786;19.138;2023-07-28T10:18:53;99777.03;;;27.28;40.30
76352;BME280;65179;47.786;19.138;2023-07-28T10:21:19;99766.41;;;27.66;40.16
76352;BME280;65179;47.786;19.138;2023-07-28T10:23:44;99765.25;;;27.67;39.74
76352;BME280;65179;47.786;19.138;2023-07-28T10:26:10;99759.88;;;27.86;39.88
76352;BME280;65179;47.786;19.138;2023-07-28T10:28:36;99749.87;;;28.21;38.90
76352;BME280;65179;47.786;19.138;2023-07-28T10:31:08;99755.72;;;28.04;39.80
76352;BME280;65179;47.786;19.138;2023-07-28T10:33:45;99758.44;;;28.40;38.96
76352;BME280;65179;47.786;19.138;2023-07-28T10:39:00;99758.81;;;28.39;37.47
76352;BME280;65179;47.786;19.138;2023-07-28T10:41:25;99754.38;;;28.38;37.28
76352;BME280;65179;47.786;19.138;2023-07-28T10:43:51;99763.41;;;28.59;37.22
76352;BME280;65179;47.786;19.138;2023-07-28T10:46:18;99759.72;;;28.43;37.58
76352;BME280;65179;47.786;19.138;2023-07-28T10:48:46;99754.09;;;28.15;37.31
76352;BME280;65179;47.786;19.138;2023-07-28T10:51:21;99759.56;;;28.00;38.54
76352;BME280;65179;47.786;19.138;2023-07-28T10:53:50;99761.94;;;28.37;37.93
76352;BME280;65179;47.786;19.138;2023-07-28T10:56:16;99754.16;;;28.71;37.45
76352;BME280;65179;47.786;19.138;2023-07-28T10:58:41;99751.75;;;28.57;37.54
76352;BME280;65179;47.786;19.138;2023-07-28T11:01:06;99755.94;;;28.91;37.40
76352;BME280;65179;47.786;19.138;2023-07-28T11:03:32;99758.81;;;29.22;36.87
76352;BME280;65179;47.786;19.138;2023-07-28T11:05:58;99762.53;;;29.57;35.95
76352;BME280;65179;47.786;19.138;2023-07-28T11:08:24;99753.59;;;29.36;35.63
76352;BME280;65179;47.786;19.138;2023-07-28T11:10:50;99760.91;;;29.25;35.59
76352;BME280;65179;47.786;19.138;2023-07-28T11:13:15;99760.34;;;29.97;34.59
76352;BME280;65179;47.786;19.138;2023-07-28T11:15:41;99747.34;;;30.40;34.00
76352;BME280;65179;47.786;19.138;2023-07-28T11:18:06;99745.81;;;30.08;34.81
76352;BME280;65179;47.786;19.138;2023-07-28T11:20:32;99752.28;;;30.46;34.74
76352;BME280;65179;47.786;19.138;2023-07-28T11:22:59;99745.69;;;30.04;34.19
76352;BME280;65179;47.786;19.138;2023-07-28T11:25:27;99748.69;;;29.95;34.22
76352;BME280;65179;47.786;19.138;2023-07-28T11:27:53;99746.06;;;30.03;35.66
76352;BME280;65179;47.786;19.138;2023-07-28T11:30:22;99745.50;;;30.47;35.14
76352;BME280;65179;47.786;19.138;2023-07-28T11:32:52;99743.72;;;30.05;34.36
76352;BME280;65179;47.786;19.138;2023-07-28T11:35:21;99751.63;;;30.53;34.59
76352;BME280;65179;47.786;19.138;2023-07-28T11:37:49;99737.31;;;30.77;34.40
76352;BME280;65179;47.786;19.138;2023-07-28T11:40:17;99735.84;;;30.64;34.36
76352;BME280;65179;47.786;19.138;2023-07-28T11:42:54;99741.47;;;30.45;34.55
76352;BME280;65179;47.786;19.138;2023-07-28T11:45:20;99743.06;;;30.46;34.29
76352;BME280;65179;47.786;19.138;2023-07-28T11:48:06;99734.63;;;30.27;33.59
76352;BME280;65179;47.786;19.138;2023-07-28T11:50:40;99730.25;;;30.45;34.83
76352;BME280;65179;47.786;19.138;2023-07-28T11:53:07;99729.34;;;30.79;34.08
76352;BME280;65179;47.786;19.138;2023-07-28T11:55:35;99736.66;;;31.25;33.56
76352;BME280;65179;47.786;19.138;2023-07-28T11:58:02;99730.19;;;31.21;33.83
76352;BME280;65179;47.786;19.138;2023-07-28T12:00:37;99721.16;;;31.54;33.18
76352;BME280;65179;47.786;19.138;2023-07-28T12:03:12;99715.97;;;31.33;32.98
76352;BME280;65179;47.786;19.138;2023-07-28T12:05:39;99720.53;;;31.41;32.93
76352;BME280;65179;47.786;19.138;2023-07-28T12:08:05;99709.59;;;31.36;33.68
76352;BME280;65179;47.786;19.138;2023-07-28T12:10:32;99714.84;;;31.61;33.61
76352;BME280;65179;47.786;19.138;2023-07-28T12:13:04;99707.19;;;31.84;33.14
76352;BME280;65179;47.786;19.138;2023-07-28T12:15:31;99705.34;;;32.21;32.72
76352;BME280;65179;47.786;19.138;2023-07-28T12:20:33;99707.31;;;32.17;32.49
76352;BME280;65179;47.786;19.138;2023-07-28T12:22:59;99706.78;;;32.08;32.23
76352;BME280;65179;47.786;19.138;2023-07-28T12:25:24;99703.84;;;31.75;32.76
76352;BME280;65179;47.786;19.138;2023-07-28T12:27:50;99702.13;;;31.21;32.80
76352;BME280;65179;47.786;19.138;2023-07-28T12:30:15;99689.09;;;31.32;32.98
76352;BME280;65179;47.786;19.138;2023-07-28T12:32:41;99691.09;;;31.55;32.89
76352;BME280;65179;47.786;19.138;2023-07-28T12:35:06;99695.34;;;31.45;33.33
76352;BME280;65179;47.786;19.138;2023-07-28T12:37:32;99691.03;;;31.77;33.09
76352;BME280;65179;47.786;19.138;2023-07-28T12:39:57;99686.31;;;31.81;32.93
76352;BME280;65179;47.786;19.138;2023-07-28T12:42:23;99687.19;;;31.89;33.18
76352;BME280;65179;47.786;19.138;2023-07-28T12:44:48;99696.72;;;31.81;33.17
76352;BME280;65179;47.786;19.138;2023-07-28T12:47:13;99689.28;;;31.20;33.91
76352;BME280;65179;47.786;19.138;2023-07-28T12:49:39;99682.34;;;30.15;35.09
76352;BME280;65179;47.786;19.138;2023-07-28T12:52:06;99689.06;;;30.68;35.21
76352;BME280;65179;47.786;19.138;2023-07-28T12:54:32;99685.03;;;30.65;34.39
76352;BME280;65179;47.786;19.138;2023-07-28T12:56:57;99688.78;;;30.92;35.04